Time,TemperatureF,DewpointF,PressureIn,WindDirection,WindDirectionDegrees,WindSpeedMPH,WindSpeedGustMPH,Humidity,HourlyPrecipIn,Conditions,Clouds,dailyrainin,SoftwareType,DateUTC
2013-01-13 00:10:00,48.7,48.4,29.64,East,90,1.7,-999.0,99,-99.99,,,0.00,Acu-Link.com,2013-01-13 05:10:00,
2013-01-13 00:26:00,49.3,49.0,29.61,NNE,22,3.2,-999.0,99,-99.99,,,0.02,Acu-Link.com,2013-01-13 05:26:00,
2013-01-13 00:41:00,49.8,49.5,29.61,NNE,22,1.7,-999.0,99,-99.99,,,0.05,Acu-Link.com,2013-01-13 05:41:00,
2013-01-13 00:56:00,50.4,50.1,29.59,East,90,2.2,-999.0,99,-99.99,,,0.13,Acu-Link.com,2013-01-13 05:56:00,
2013-01-13 01:12:00,50.7,50.4,29.60,NNE,22,2.7,-999.0,99,-99.99,,,0.20,Acu-Link.com,2013-01-13 06:12:00,
2013-01-13 01:27:00,50.7,50.4,29.58,East,90,4.7,-999.0,99,-99.99,,,0.25,Acu-Link.com,2013-01-13 06:27:00,
2013-01-13 01:42:00,50.5,50.2,29.58,NNE,22,4.7,-999.0,99,-99.99,,,0.33,Acu-Link.com,2013-01-13 06:42:00,
2013-01-13 01:58:00,48.7,47.9,29.58,NNE,22,10.4,-999.0,97,-99.99,,,0.37,Acu-Link.com,2013-01-13 06:58:00,
2013-01-13 02:13:00,47.3,45.7,29.58,ESE,112,5.8,-999.0,94,-99.99,,,0.42,Acu-Link.com,2013-01-13 07:13:00,
2013-01-13 02:28:00,46.2,44.6,29.57,West,270,5.3,-999.0,94,-99.99,,,0.44,Acu-Link.com,2013-01-13 07:28:00,
2013-01-13 02:43:00,46.2,44.3,29.57,WNW,292,6.3,-999.0,93,-99.99,,,0.47,Acu-Link.com,2013-01-13 07:43:00,
2013-01-13 02:59:00,45.9,44.0,29.58,West,270,3.2,-999.0,93,-99.99,,,0.51,Acu-Link.com,2013-01-13 07:59:00,
2013-01-13 03:14:00,44.6,43.3,29.58,NNE,22,6.8,-999.0,95,-99.99,,,0.57,Acu-Link.com,2013-01-13 08:14:00,
2013-01-13 03:29:00,43.9,42.3,29.58,West,270,4.2,-999.0,94,-99.99,,,0.62,Acu-Link.com,2013-01-13 08:29:00,
2013-01-13 03:45:00,43.3,41.7,29.57,NNE,22,4.7,-999.0,94,-99.99,,,0.66,Acu-Link.com,2013-01-13 08:45:00,
2013-01-13 04:00:00,43.0,41.1,29.56,NNE,22,8.9,-999.0,93,-99.99,,,0.68,Acu-Link.com,2013-01-13 09:00:00,
2013-01-13 04:15:00,43.0,40.8,29.55,NNE,22,12.5,-999.0,92,-99.99,,,0.68,Acu-Link.com,2013-01-13 09:15:00,
2013-01-13 04:30:00,42.6,40.7,29.56,NNE,22,5.3,-999.0,93,-99.99,,,0.68,Acu-Link.com,2013-01-13 09:30:00,
2013-01-13 04:45:00,42.3,40.4,29.55,West,270,5.3,-999.0,93,-99.99,,,0.70,Acu-Link.com,2013-01-13 09:45:00,
2013-01-13 05:00:00,41.9,40.6,29.57,NW,315,3.7,-999.0,95,-99.99,,,0.74,Acu-Link.com,2013-01-13 10:00:00,
2013-01-13 05:16:00,41.0,39.9,29.57,West,270,2.7,-999.0,96,-99.99,,,0.82,Acu-Link.com,2013-01-13 10:16:00,
2013-01-13 05:31:00,40.5,39.2,29.54,NNE,22,6.8,-999.0,95,-99.99,,,0.83,Acu-Link.com,2013-01-13 10:31:00,
2013-01-13 05:46:00,40.5,38.9,29.55,NNE,22,10.4,-999.0,94,-99.99,,,0.83,Acu-Link.com,2013-01-13 10:46:00,
2013-01-13 06:02:00,40.8,38.9,29.55,WNW,292,4.7,-999.0,93,-99.99,,,0.84,Acu-Link.com,2013-01-13 11:02:00,
2013-01-13 06:17:00,41.2,39.3,29.58,NNE,22,5.3,-999.0,93,-99.99,,,0.84,Acu-Link.com,2013-01-13 11:17:00,
2013-01-13 06:32:00,41.2,39.3,29.59,West,270,2.2,-999.0,93,-99.99,,,0.84,Acu-Link.com,2013-01-13 11:32:00,
2013-01-13 06:48:00,41.0,39.1,29.60,West,270,2.7,-999.0,93,-99.99,,,0.84,Acu-Link.com,2013-01-13 11:48:00,
2013-01-13 07:03:00,41.0,39.1,29.62,WSW,247,3.2,-999.0,93,-99.99,,,0.84,Acu-Link.com,2013-01-13 12:03:00,
2013-01-13 07:19:00,40.8,39.2,29.62,West,270,3.2,-999.0,94,-99.99,,,0.84,Acu-Link.com,2013-01-13 12:19:00,
2013-01-13 07:34:00,40.6,39.0,29.62,NNE,22,1.7,-999.0,94,-99.99,,,0.84,Acu-Link.com,2013-01-13 12:34:00,
2013-01-13 07:49:00,40.6,39.0,29.62,West,270,5.3,-999.0,94,-99.99,,,0.84,Acu-Link.com,2013-01-13 12:49:00,
2013-01-13 08:05:00,40.6,39.0,29.64,West,270,2.2,-999.0,94,-99.99,,,0.84,Acu-Link.com,2013-01-13 13:05:00,
2013-01-13 08:20:00,40.6,38.7,29.63,NNE,22,2.2,-999.0,93,-99.99,,,0.84,Acu-Link.com,2013-01-13 13:20:00,
2013-01-13 08:35:00,40.8,39.2,29.65,NE,45,1.7,-999.0,94,-99.99,,,0.84,Acu-Link.com,2013-01-13 13:35:00,
2013-01-13 08:50:00,41.0,39.1,29.66,WNW,292,1.7,-999.0,93,-99.99,,,0.84,Acu-Link.com,2013-01-13 13:50:00,
2013-01-13 09:06:00,41.2,39.1,29.65,NE,45,2.2,-999.0,92,-99.99,,,0.84,Acu-Link.com,2013-01-13 14:06:00,
2013-01-13 09:21:00,41.4,39.0,29.66,SSE,157,2.2,-999.0,91,-99.99,,,0.84,Acu-Link.com,2013-01-13 14:21:00,
2013-01-13 09:36:00,41.5,38.8,29.65,West,270,1.1,-999.0,90,-99.99,,,0.84,Acu-Link.com,2013-01-13 14:36:00,
2013-01-13 09:52:00,41.7,39.0,29.66,West,270,2.2,-999.0,90,-99.99,,,0.84,Acu-Link.com,2013-01-13 14:52:00,
2013-01-13 10:07:00,41.7,38.7,29.68,WSW,247,2.2,-999.0,89,-99.99,,,0.84,Acu-Link.com,2013-01-13 15:07:00,
2013-01-13 10:22:00,41.7,39.0,29.66,NNE,22,0.0,-999.0,90,-99.99,,,0.84,Acu-Link.com,2013-01-13 15:22:00,
2013-01-13 10:38:00,41.9,39.2,29.67,SE,135,2.2,-999.0,90,-99.99,,,0.84,Acu-Link.com,2013-01-13 15:38:00,
2013-01-13 10:53:00,42.1,39.4,29.68,WSW,247,2.2,-999.0,90,-99.99,,,0.84,Acu-Link.com,2013-01-13 15:53:00,
2013-01-13 11:08:00,42.3,39.3,29.68,WSW,247,3.7,-999.0,89,-99.99,,,0.84,Acu-Link.com,2013-01-13 16:08:00,
2013-01-13 11:23:00,41.9,39.5,29.67,WSW,247,2.7,-999.0,91,-99.99,,,0.84,Acu-Link.com,2013-01-13 16:23:00,
2013-01-13 11:39:00,41.7,39.6,29.68,WSW,247,4.7,-999.0,92,-99.99,,,0.84,Acu-Link.com,2013-01-13 16:39:00,
2013-01-13 11:54:00,41.5,39.1,29.68,WSW,247,3.2,-999.0,91,-99.99,,,0.84,Acu-Link.com,2013-01-13 16:54:00,
2013-01-13 12:09:00,41.5,39.1,29.68,WSW,247,7.3,-999.0,91,-99.99,,,0.84,Acu-Link.com,2013-01-13 17:09:00,
2013-01-13 12:25:00,41.2,38.8,29.68,WSW,247,6.8,-999.0,91,-99.99,,,0.84,Acu-Link.com,2013-01-13 17:25:00,
2013-01-13 12:40:00,41.2,39.1,29.68,SSE,157,4.2,-999.0,92,-99.99,,,0.84,Acu-Link.com,2013-01-13 17:40:00,
2013-01-13 12:56:00,42.1,39.7,29.67,SSE,157,3.7,-999.0,91,-99.99,,,0.84,Acu-Link.com,2013-01-13 17:56:00,
2013-01-13 13:11:00,41.5,39.1,29.67,West,270,5.3,-999.0,91,-99.99,,,0.84,Acu-Link.com,2013-01-13 18:11:00,
2013-01-13 13:27:00,41.5,38.8,29.67,West,270,3.7,-999.0,90,-99.99,,,0.84,Acu-Link.com,2013-01-13 18:27:00,
2013-01-13 13:42:00,41.4,39.0,29.68,NW,315,3.2,-999.0,91,-99.99,,,0.84,Acu-Link.com,2013-01-13 18:42:00,
2013-01-13 13:57:00,41.2,38.8,29.69,SSE,157,4.2,-999.0,91,-99.99,,,0.84,Acu-Link.com,2013-01-13 18:57:00,
2013-01-13 14:13:00,41.0,38.9,29.68,West,270,3.2,-999.0,92,-99.99,,,0.84,Acu-Link.com,2013-01-13 19:13:00,
2013-01-13 14:28:00,41.4,39.3,29.66,NW,315,4.2,-999.0,92,-99.99,,,0.84,Acu-Link.com,2013-01-13 19:28:00,
2013-01-13 14:44:00,41.4,39.0,29.65,ENE,67,6.3,-999.0,91,-99.99,,,0.84,Acu-Link.com,2013-01-13 19:44:00,
2013-01-13 14:59:00,41.4,39.0,29.65,ESE,112,2.2,-999.0,91,-99.99,,,0.84,Acu-Link.com,2013-01-13 19:59:00,
2013-01-13 15:14:00,41.4,39.0,29.66,SSE,157,1.7,-999.0,91,-99.99,,,0.84,Acu-Link.com,2013-01-13 20:14:00,
2013-01-13 15:29:00,41.4,39.0,29.68,NNE,22,3.7,-999.0,91,-99.99,,,0.84,Acu-Link.com,2013-01-13 20:29:00,
2013-01-13 15:45:00,41.2,39.1,29.69,NNE,22,2.7,-999.0,92,-99.99,,,0.84,Acu-Link.com,2013-01-13 20:45:00,
2013-01-13 16:00:00,41.0,38.9,29.70,WSW,247,2.7,-999.0,92,-99.99,,,0.84,Acu-Link.com,2013-01-13 21:00:00,
2013-01-13 16:15:00,40.6,39.0,29.71,WNW,292,2.7,-999.0,94,-99.99,,,0.84,Acu-Link.com,2013-01-13 21:15:00,
2013-01-13 16:31:00,40.3,39.3,29.72,WSW,247,2.7,-999.0,96,-99.99,,,0.84,Acu-Link.com,2013-01-13 21:31:00,
2013-01-13 16:46:00,39.9,39.1,29.72,NE,45,2.2,-999.0,97,-99.99,,,0.84,Acu-Link.com,2013-01-13 21:46:00,
2013-01-13 17:01:00,39.7,38.9,29.72,NNE,22,2.7,-999.0,97,-99.99,,,0.85,Acu-Link.com,2013-01-13 22:01:00,
2013-01-13 17:17:00,39.6,38.8,29.72,West,270,4.2,-999.0,97,-99.99,,,0.85,Acu-Link.com,2013-01-13 22:17:00,
2013-01-13 17:32:00,39.2,38.4,29.74,SSE,157,4.2,-999.0,97,-99.99,,,0.88,Acu-Link.com,2013-01-13 22:32:00,
2013-01-13 17:47:00,38.7,37.9,29.74,ENE,67,1.7,-999.0,97,-99.99,,,0.89,Acu-Link.com,2013-01-13 22:47:00,
2013-01-13 18:03:00,38.5,37.7,29.72,NNE,22,4.2,-999.0,97,-99.99,,,0.92,Acu-Link.com,2013-01-13 23:03:00,
2013-01-13 18:18:00,38.3,37.5,29.72,NE,45,2.7,-999.0,97,-99.99,,,0.94,Acu-Link.com,2013-01-13 23:18:00,
2013-01-13 18:33:00,38.1,37.1,29.71,NNE,22,1.7,-999.0,96,-99.99,,,0.97,Acu-Link.com,2013-01-13 23:33:00,
2013-01-13 18:49:00,37.9,37.1,29.71,West,270,1.1,-999.0,97,-99.99,,,0.98,Acu-Link.com,2013-01-13 23:49:00,
2013-01-13 19:04:00,37.8,37.0,29.74,SSE,157,2.7,-999.0,97,-99.99,,,1.00,Acu-Link.com,2013-01-14 00:04:00,
2013-01-13 19:20:00,37.6,36.8,29.73,SSE,157,4.7,-999.0,97,-99.99,,,1.01,Acu-Link.com,2013-01-14 00:20:00,
2013-01-13 19:35:00,37.4,36.9,29.72,West,270,1.7,-999.0,98,-99.99,,,1.02,Acu-Link.com,2013-01-14 00:35:00,
2013-01-13 19:51:00,37.8,37.3,29.72,West,270,1.1,-999.0,98,-99.99,,,1.03,Acu-Link.com,2013-01-14 00:51:00,
2013-01-13 20:06:00,37.6,37.1,29.73,SSE,157,4.7,-999.0,98,-99.99,,,1.03,Acu-Link.com,2013-01-14 01:06:00,
2013-01-13 20:21:00,37.4,37.1,29.73,SSE,157,4.7,-999.0,99,-99.99,,,1.04,Acu-Link.com,2013-01-14 01:21:00,
2013-01-13 20:36:00,37.0,36.7,29.74,SW,225,6.3,-999.0,99,-99.99,,,1.04,Acu-Link.com,2013-01-14 01:36:00,
2013-01-13 20:52:00,36.9,36.4,29.74,SSE,157,6.3,-999.0,98,-99.99,,,1.04,Acu-Link.com,2013-01-14 01:52:00,
2013-01-13 21:07:00,36.5,36.0,29.75,West,270,6.8,-999.0,98,-99.99,,,1.05,Acu-Link.com,2013-01-14 02:07:00,
2013-01-13 21:22:00,36.3,35.8,29.76,SSE,157,7.3,-999.0,98,-99.99,,,1.05,Acu-Link.com,2013-01-14 02:22:00,
2013-01-13 21:37:00,35.8,35.0,29.77,NE,45,9.4,-999.0,97,-99.99,,,1.06,Acu-Link.com,2013-01-14 02:37:00,
2013-01-13 21:53:00,35.2,33.9,29.79,SSE,157,7.3,-999.0,95,-99.99,,,1.06,Acu-Link.com,2013-01-14 02:53:00,
2013-01-13 22:08:00,34.9,33.6,29.79,SW,225,11.9,-999.0,95,-99.99,,,1.06,Acu-Link.com,2013-01-14 03:08:00,
2013-01-13 22:23:00,34.7,33.2,29.79,WSW,247,7.8,-999.0,94,-99.99,,,1.06,Acu-Link.com,2013-01-14 03:23:00,
2013-01-13 22:39:00,34.2,32.7,29.79,West,270,4.2,-999.0,94,-99.99,,,1.06,Acu-Link.com,2013-01-14 03:39:00,
2013-01-13 22:54:00,34.0,32.7,29.79,West,270,5.3,-999.0,95,-99.99,,,1.06,Acu-Link.com,2013-01-14 03:54:00,
2013-01-13 23:09:00,34.0,33.0,29.81,WSW,247,7.8,-999.0,96,-99.99,,,1.06,Acu-Link.com,2013-01-14 04:09:00,
2013-01-13 23:24:00,33.8,32.3,29.82,ENE,67,2.7,-999.0,94,-99.99,,,1.06,Acu-Link.com,2013-01-14 04:24:00,
2013-01-13 23:40:00,33.4,31.1,29.83,SSE,157,6.3,-999.0,91,-99.99,,,1.06,Acu-Link.com,2013-01-14 04:40:00,
2013-01-13 23:55:00,33.1,30.8,29.84,WSW,247,10.9,-999.0,91,-99.99,,,1.06,Acu-Link.com,2013-01-14 04:55:00,